createdAt,value
2018-03-02T00:00:59.599Z,999.73
2018-03-02T00:01:59.450Z,999.64
2018-03-02T00:02:59.413Z,999.54
2018-03-02T00:03:59.421Z,999.57
2018-03-02T00:04:59.349Z,999.54
2018-03-02T00:05:59.317Z,999.55
2018-03-02T00:06:59.391Z,999.46
2018-03-02T00:07:59.244Z,999.42
2018-03-02T00:08:59.210Z,999.49
2018-03-02T00:09:59.265Z,999.44
2018-03-02T00:10:59.148Z,999.44
2018-03-02T00:11:59.123Z,999.44
2018-03-02T00:12:59.088Z,999.41
2018-03-02T00:13:59.051Z,999.40
2018-03-02T00:14:59.017Z,999.45
2018-03-02T00:15:58.987Z,999.46
2018-03-02T00:16:58.970Z,999.40
2018-03-02T00:17:58.922Z,999.40
2018-03-02T00:18:58.889Z,999.28
2018-03-02T00:19:58.856Z,999.41
2018-03-02T00:20:58.827Z,999.32
2018-03-02T00:21:58.792Z,999.28
2018-03-02T00:22:58.760Z,999.30
2018-03-02T00:23:58.731Z,999.26
2018-03-02T00:24:58.697Z,999.26
2018-03-02T00:25:58.661Z,999.23
2018-03-02T00:26:58.629Z,999.20
2018-03-02T00:27:58.601Z,999.23
2018-03-02T00:28:58.567Z,999.33
2018-03-02T00:29:58.536Z,999.23
2018-03-02T00:30:58.507Z,999.20
2018-03-02T00:31:58.468Z,999.32
2018-03-02T00:32:58.435Z,999.19
2018-03-02T00:33:58.406Z,999.21
2018-03-02T00:34:58.372Z,999.20
2018-03-02T00:35:58.340Z,999.29
2018-03-02T00:36:58.309Z,999.15
2018-03-02T00:37:58.386Z,999.22
2018-03-02T00:38:58.248Z,999.19
2018-03-02T00:39:58.211Z,999.22
2018-03-02T00:40:58.210Z,999.18
2018-03-02T00:41:58.155Z,999.17
2018-03-02T00:42:58.120Z,999.18
2018-03-02T00:43:58.096Z,999.20
2018-03-02T00:44:58.051Z,999.23
2018-03-02T00:45:58.017Z,999.15
2018-03-02T00:46:57.987Z,999.11
2018-03-02T00:47:57.953Z,999.10
2018-03-02T00:48:57.932Z,999.09
2018-03-02T00:49:57.888Z,999.03
2018-03-02T00:50:57.856Z,999.12
2018-03-02T00:51:57.838Z,999.15
2018-03-02T00:52:57.791Z,999.03
2018-03-02T00:53:57.774Z,998.96
2018-03-02T00:54:57.782Z,999.04
2018-03-02T00:55:57.694Z,999.00
2018-03-02T00:56:57.663Z,999.01
2018-03-02T00:57:57.631Z,999.04
2018-03-02T00:58:57.613Z,998.97
2018-03-02T00:59:57.563Z,998.98
2018-03-02T01:00:57.531Z,998.93
2018-03-02T01:01:57.556Z,998.96
2018-03-02T01:02:57.468Z,998.97
2018-03-02T01:03:57.438Z,998.91
2018-03-02T01:04:57.400Z,998.91
2018-03-02T01:05:57.370Z,998.98
2018-03-02T01:06:57.346Z,998.90
2018-03-02T01:07:57.314Z,998.95
2018-03-02T01:08:57.284Z,998.90
2018-03-02T01:09:57.250Z,998.90
2018-03-02T01:10:57.211Z,998.89
2018-03-02T01:11:57.177Z,998.90
2018-03-02T01:12:57.142Z,998.86
2018-03-02T01:13:57.123Z,998.90
2018-03-02T01:14:57.081Z,998.87
2018-03-02T01:15:57.046Z,998.87
2018-03-02T01:16:57.018Z,998.86
2018-03-02T01:17:56.990Z,998.90
2018-03-02T01:18:56.950Z,998.84
2018-03-02T01:19:56.916Z,998.80
2018-03-02T01:20:56.885Z,998.76
2018-03-02T01:21:56.853Z,998.84
2018-03-02T01:22:56.985Z,998.80
2018-03-02T01:23:56.790Z,998.82
2018-03-02T01:24:56.758Z,998.77
2018-03-02T01:25:56.841Z,998.82
2018-03-02T01:26:56.690Z,998.83
2018-03-02T01:27:56.658Z,998.85
2018-03-02T01:28:56.629Z,998.83
2018-03-02T01:29:56.593Z,998.81
2018-03-02T01:30:56.563Z,998.88
2018-03-02T01:31:56.537Z,998.84
2018-03-02T01:32:56.498Z,998.84
2018-03-02T01:33:56.466Z,998.81
2018-03-02T01:34:56.431Z,998.75
2018-03-02T01:35:56.399Z,998.73
2018-03-02T01:36:56.367Z,998.68
2018-03-02T01:37:56.343Z,998.71
2018-03-02T01:38:56.319Z,998.65
2018-03-02T01:39:56.271Z,998.64
2018-03-02T01:40:56.238Z,998.68
2018-03-02T01:41:56.208Z,998.64
2018-03-02T01:42:56.176Z,998.58
2018-03-02T01:43:56.148Z,998.56
2018-03-02T01:44:56.119Z,998.55
2018-03-02T01:45:56.077Z,998.55
2018-03-02T01:46:56.046Z,998.46
2018-03-02T01:47:56.016Z,998.44
2018-03-02T01:48:55.983Z,998.47
2018-03-02T01:49:55.949Z,998.44
2018-03-02T01:50:55.915Z,998.38
2018-03-02T01:51:55.886Z,998.38
2018-03-02T01:52:55.859Z,998.40
2018-03-02T01:53:55.819Z,998.46
2018-03-02T01:54:55.791Z,998.33
2018-03-02T01:55:55.755Z,998.34
2018-03-02T01:56:55.724Z,998.32
2018-03-02T01:57:55.694Z,998.33
2018-03-02T01:58:55.659Z,998.37
2018-03-02T01:59:55.628Z,998.42
2018-03-02T02:00:55.594Z,998.38
2018-03-02T02:01:55.564Z,998.42
2018-03-02T02:02:55.538Z,998.42
2018-03-02T02:03:55.503Z,998.39
2018-03-02T02:04:55.472Z,998.40
2018-03-02T02:05:55.433Z,998.37
2018-03-02T02:06:55.403Z,998.30
2018-03-02T02:07:55.365Z,998.37
2018-03-02T02:08:55.350Z,998.32
2018-03-02T02:09:55.302Z,998.30
2018-03-02T02:10:55.273Z,998.32
2018-03-02T02:11:55.237Z,998.32
2018-03-02T02:12:55.204Z,998.32
2018-03-02T02:13:55.180Z,998.34
2018-03-02T02:14:55.142Z,998.36
2018-03-02T02:15:55.107Z,998.32
2018-03-02T02:16:55.073Z,998.39
2018-03-02T02:17:55.042Z,998.36
2018-03-02T02:18:55.029Z,998.37
2018-03-02T02:19:54.981Z,998.27
2018-03-02T02:20:54.948Z,998.27
2018-03-02T02:21:54.923Z,998.31
2018-03-02T02:22:54.884Z,998.31
2018-03-02T02:23:54.990Z,998.17
2018-03-02T02:24:54.826Z,998.29
2018-03-02T02:25:54.784Z,998.22
2018-03-02T02:26:54.845Z,998.20
2018-03-02T02:27:54.721Z,998.26
2018-03-02T02:28:54.689Z,998.23
2018-03-02T02:29:54.752Z,998.19
2018-03-02T02:30:54.628Z,998.12
2018-03-02T02:31:54.595Z,998.13
2018-03-02T02:32:54.555Z,998.17
2018-03-02T02:33:54.523Z,998.20
2018-03-02T02:34:54.493Z,998.13
2018-03-02T02:35:54.460Z,998.10
2018-03-02T02:36:54.429Z,998.09
2018-03-02T02:37:54.395Z,998.01
2018-03-02T02:38:54.359Z,998.01
2018-03-02T02:39:54.329Z,997.94
2018-03-02T02:40:54.295Z,998.00
2018-03-02T02:41:54.261Z,997.96
2018-03-02T02:42:54.228Z,997.94
2018-03-02T02:43:54.198Z,997.98
2018-03-02T02:44:54.162Z,998.01
2018-03-02T02:45:54.130Z,998.02
2018-03-02T02:46:54.098Z,998.03
2018-03-02T02:47:54.062Z,997.97
2018-03-02T02:48:54.032Z,998.03
2018-03-02T02:49:54.007Z,997.94
2018-03-02T02:50:53.967Z,997.91
2018-03-02T02:51:53.936Z,997.98
2018-03-02T02:52:53.902Z,998.00
2018-03-02T02:53:53.869Z,997.93
2018-03-02T02:54:53.838Z,998.01
2018-03-02T02:55:53.806Z,998.02
2018-03-02T02:56:53.769Z,998.01
2018-03-02T02:57:53.738Z,997.99
2018-03-02T02:58:53.705Z,998.07
2018-03-02T02:59:53.681Z,997.95
2018-03-02T03:00:53.638Z,997.94
2018-03-02T03:01:53.622Z,997.99
2018-03-02T03:02:53.577Z,998.12
2018-03-02T03:03:53.541Z,998.00
2018-03-02T03:04:53.517Z,997.96
2018-03-02T03:05:53.475Z,998.03
2018-03-02T03:06:53.446Z,997.98
2018-03-02T03:07:53.410Z,998.03
2018-03-02T03:08:53.374Z,998.01
2018-03-02T03:09:53.345Z,998.01
2018-03-02T03:10:53.309Z,998.02
2018-03-02T03:11:53.423Z,997.96
2018-03-02T03:12:53.243Z,997.98
2018-03-02T03:13:53.215Z,998.00
2018-03-02T03:14:53.227Z,998.05
2018-03-02T03:15:53.146Z,997.95
2018-03-02T03:16:53.116Z,997.96
2018-03-02T03:17:53.185Z,998.04
2018-03-02T03:18:53.049Z,998.02
2018-03-02T03:19:53.015Z,997.87
2018-03-02T03:20:52.988Z,997.90
2018-03-02T03:21:52.952Z,997.86
2018-03-02T03:22:52.917Z,997.84
2018-03-02T03:23:52.891Z,997.84
2018-03-02T03:24:52.853Z,997.82
2018-03-02T03:25:52.817Z,997.80
2018-03-02T03:26:52.784Z,997.78
2018-03-02T03:27:52.752Z,997.76
2018-03-02T03:28:52.722Z,997.77
2018-03-02T03:29:52.687Z,997.76
2018-03-02T03:30:52.662Z,997.82
2018-03-02T03:31:52.621Z,997.81
2018-03-02T03:32:52.592Z,997.75
2018-03-02T03:33:52.554Z,997.72
2018-03-02T03:34:52.524Z,997.70
2018-03-02T03:35:52.491Z,997.63
2018-03-02T03:36:52.456Z,997.70
2018-03-02T03:37:52.425Z,997.63
2018-03-02T03:38:52.393Z,997.63
2018-03-02T03:39:52.365Z,997.58
2018-03-02T03:40:52.330Z,997.62
2018-03-02T03:41:52.295Z,997.62
2018-03-02T03:42:52.263Z,997.59
2018-03-02T03:43:52.231Z,997.62
2018-03-02T03:44:52.195Z,997.61
2018-03-02T03:45:52.161Z,997.60
2018-03-02T03:46:52.128Z,997.58
2018-03-02T03:47:52.095Z,997.60
2018-03-02T03:48:52.064Z,997.51
2018-03-02T03:49:52.036Z,997.48
2018-03-02T03:50:52.000Z,997.52
2018-03-02T03:51:51.963Z,997.58
2018-03-02T03:52:51.931Z,997.50
2018-03-02T03:53:51.898Z,997.47
2018-03-02T03:54:51.865Z,997.42
2018-03-02T03:55:51.830Z,997.41
2018-03-02T03:56:51.802Z,997.49
2018-03-02T03:57:51.769Z,997.44
2018-03-02T03:58:51.738Z,997.44
2018-03-02T03:59:51.717Z,997.45
2018-03-02T04:00:51.666Z,997.43
2018-03-02T04:01:51.634Z,997.36
2018-03-02T04:02:51.677Z,997.42
2018-03-02T04:03:51.567Z,997.33
2018-03-02T04:04:51.537Z,997.34
2018-03-02T04:05:51.666Z,997.43
2018-03-02T04:06:51.474Z,997.42
2018-03-02T04:07:51.436Z,997.39
2018-03-02T04:08:51.482Z,997.40
2018-03-02T04:09:51.372Z,997.39
2018-03-02T04:10:51.354Z,997.42
2018-03-02T04:11:51.357Z,997.46
2018-03-02T04:12:51.276Z,997.41
2018-03-02T04:13:51.239Z,997.35
2018-03-02T04:14:51.209Z,997.36
2018-03-02T04:15:51.179Z,997.38
2018-03-02T04:16:51.139Z,997.36
2018-03-02T04:17:51.114Z,997.29
2018-03-02T04:18:51.075Z,997.28
2018-03-02T04:19:51.045Z,997.28
2018-03-02T04:20:51.008Z,997.31
2018-03-02T04:21:50.975Z,997.41
2018-03-02T04:22:50.945Z,997.27
2018-03-02T04:23:50.910Z,997.31
2018-03-02T04:24:50.875Z,997.30
2018-03-02T04:25:50.849Z,997.32
2018-03-02T04:26:50.810Z,997.25
2018-03-02T04:27:50.776Z,997.30
2018-03-02T04:28:50.744Z,997.21
2018-03-02T04:29:50.713Z,997.28
2018-03-02T04:30:50.677Z,997.30
2018-03-02T04:31:50.644Z,997.26
2018-03-02T04:32:50.614Z,997.25
2018-03-02T04:33:50.578Z,997.32
2018-03-02T04:34:50.546Z,997.29
2018-03-02T04:35:50.530Z,997.34
2018-03-02T04:36:50.478Z,997.28
2018-03-02T04:37:50.447Z,997.33
2018-03-02T04:38:50.412Z,997.36
2018-03-02T04:39:50.381Z,997.28
2018-03-02T04:40:50.345Z,997.35
2018-03-02T04:41:50.312Z,997.28
2018-03-02T04:42:50.286Z,997.29
2018-03-02T04:43:50.246Z,997.24
2018-03-02T04:44:50.214Z,997.23
2018-03-02T04:45:50.181Z,997.31
2018-03-02T04:46:50.146Z,997.30
2018-03-02T04:47:50.115Z,997.27
2018-03-02T04:48:50.082Z,997.32
2018-03-02T04:49:50.052Z,997.33
2018-03-02T04:50:50.017Z,997.32
2018-03-02T04:51:49.980Z,997.32
2018-03-02T04:52:49.951Z,997.21
2018-03-02T04:53:49.997Z,997.27
2018-03-02T04:54:49.880Z,997.26
2018-03-02T04:55:49.850Z,997.19
2018-03-02T04:56:49.816Z,997.26
2018-03-02T04:57:49.791Z,997.28
2018-03-02T04:58:49.751Z,997.23
2018-03-02T04:59:49.714Z,997.25
2018-03-02T05:00:49.690Z,997.20
2018-03-02T05:01:49.650Z,997.17
2018-03-02T05:02:49.618Z,997.20
2018-03-02T05:03:49.743Z,997.21
2018-03-02T05:04:49.550Z,997.22
2018-03-02T05:05:49.519Z,997.16
2018-03-02T05:06:49.599Z,997.20
2018-03-02T05:07:49.448Z,997.19
2018-03-02T05:08:49.419Z,997.21
2018-03-02T05:09:49.396Z,997.20
2018-03-02T05:10:49.347Z,997.22
2018-03-02T05:11:49.319Z,997.16
2018-03-02T05:12:49.282Z,997.20
2018-03-02T05:13:49.248Z,997.19
2018-03-02T05:14:49.241Z,997.13
2018-03-02T05:15:49.192Z,997.14
2018-03-02T05:16:49.150Z,997.16
2018-03-02T05:17:49.117Z,997.16
2018-03-02T05:18:49.082Z,997.19
2018-03-02T05:19:49.050Z,997.17
2018-03-02T05:20:49.016Z,997.11
2018-03-02T05:21:48.983Z,997.13
2018-03-02T05:22:48.950Z,997.12
2018-03-02T05:23:48.920Z,997.11
2018-03-02T05:24:48.886Z,997.05
2018-03-02T05:25:48.849Z,997.06
2018-03-02T05:26:48.832Z,997.03
2018-03-02T05:27:48.782Z,996.97
2018-03-02T05:28:48.751Z,996.94
2018-03-02T05:29:48.726Z,997.02
2018-03-02T05:30:48.684Z,996.98
2018-03-02T05:31:48.649Z,997.01
2018-03-02T05:32:48.624Z,996.98
2018-03-02T05:33:48.585Z,997.00
2018-03-02T05:34:48.623Z,997.00
2018-03-02T05:35:48.516Z,996.96
2018-03-02T05:36:48.485Z,996.92
2018-03-02T05:37:48.458Z,996.94
2018-03-02T05:38:48.418Z,996.93
2018-03-02T05:39:48.384Z,996.92
2018-03-02T05:40:48.349Z,996.95
2018-03-02T05:41:48.332Z,996.90
2018-03-02T05:42:48.283Z,996.90
2018-03-02T05:43:48.256Z,996.77
2018-03-02T05:44:48.345Z,996.85
2018-03-02T05:45:48.192Z,996.84
2018-03-02T05:46:48.150Z,996.81
2018-03-02T05:47:48.118Z,996.74
2018-03-02T05:48:48.084Z,996.79
2018-03-02T05:49:48.055Z,996.83
2018-03-02T05:50:48.015Z,996.81
2018-03-02T05:51:47.991Z,996.87
2018-03-02T05:52:48.004Z,996.78
2018-03-02T05:53:47.918Z,996.82
2018-03-02T05:54:47.892Z,996.78
2018-03-02T05:55:47.848Z,996.82
2018-03-02T05:56:47.814Z,996.76
2018-03-02T05:57:47.783Z,996.86
2018-03-02T05:58:47.752Z,996.75
2018-03-02T05:59:47.717Z,996.79
2018-03-02T06:00:47.682Z,996.78
2018-03-02T06:01:47.656Z,996.79
2018-03-02T06:02:47.623Z,996.74
2018-03-02T06:03:47.581Z,996.73
2018-03-02T06:04:47.546Z,996.70
2018-03-02T06:05:47.514Z,996.68
2018-03-02T06:06:47.481Z,996.69
2018-03-02T06:07:47.446Z,996.58
2018-03-02T06:08:47.414Z,996.69
2018-03-02T06:09:47.396Z,996.58
2018-03-02T06:10:47.345Z,996.69
2018-03-02T06:11:47.311Z,996.72
2018-03-02T06:12:47.285Z,996.73
2018-03-02T06:13:47.245Z,996.64
2018-03-02T06:14:47.211Z,996.73
2018-03-02T06:15:47.180Z,996.73
2018-03-02T06:16:47.145Z,996.66
2018-03-02T06:17:47.109Z,996.67
2018-03-02T06:18:47.096Z,996.69
2018-03-02T06:19:47.044Z,996.70
2018-03-02T06:20:47.008Z,996.69
2018-03-02T06:21:46.974Z,996.75
2018-03-02T06:22:46.945Z,996.70
2018-03-02T06:23:46.908Z,996.71
2018-03-02T06:24:46.873Z,996.74
2018-03-02T06:25:46.841Z,996.71
2018-03-02T06:26:46.811Z,996.72
2018-03-02T06:27:46.772Z,996.75
2018-03-02T06:28:46.739Z,996.70
2018-03-02T06:29:46.708Z,996.71
2018-03-02T06:30:46.678Z,996.72
2018-03-02T06:31:46.637Z,996.67
2018-03-02T06:32:46.608Z,996.61
2018-03-02T06:33:46.574Z,996.62
2018-03-02T06:34:46.538Z,996.68
2018-03-02T06:35:46.507Z,996.66
2018-03-02T06:36:46.481Z,996.74
2018-03-02T06:37:46.437Z,996.70
2018-03-02T06:38:46.407Z,996.70
2018-03-02T06:39:46.372Z,996.67
2018-03-02T06:40:46.346Z,996.67
2018-03-02T06:41:46.311Z,996.63
2018-03-02T06:42:46.270Z,996.63
2018-03-02T06:43:46.240Z,996.59
2018-03-02T06:44:46.202Z,996.58
2018-03-02T06:45:46.169Z,996.50
2018-03-02T06:46:46.136Z,996.52
2018-03-02T06:47:46.100Z,996.47
2018-03-02T06:48:46.080Z,996.50
2018-03-02T06:49:46.034Z,996.45
2018-03-02T06:50:46.001Z,996.52
2018-03-02T06:51:46.016Z,996.52
2018-03-02T06:52:45.934Z,996.54
2018-03-02T06:53:45.899Z,996.59
2018-03-02T06:54:45.921Z,996.56
2018-03-02T06:55:45.836Z,996.49
2018-03-02T06:56:45.799Z,996.52
2018-03-02T06:57:45.769Z,996.51
2018-03-02T06:58:45.743Z,996.44
2018-03-02T06:59:45.701Z,996.42
2018-03-02T07:00:45.671Z,996.34
2018-03-02T07:01:45.633Z,996.39
2018-03-02T07:02:45.602Z,996.39
2018-03-02T07:03:45.575Z,996.41
2018-03-02T07:04:45.536Z,996.45
2018-03-02T07:05:45.498Z,996.40
2018-03-02T07:06:45.466Z,996.39
2018-03-02T07:07:45.434Z,996.34
2018-03-02T07:08:45.396Z,996.34
2018-03-02T07:09:45.373Z,996.37
2018-03-02T07:10:45.350Z,996.38
2018-03-02T07:11:45.299Z,996.39
2018-03-02T07:12:45.265Z,996.40
2018-03-02T07:13:45.243Z,996.35
2018-03-02T07:14:45.203Z,996.37
2018-03-02T07:15:45.166Z,996.34
2018-03-02T07:16:45.134Z,996.42
2018-03-02T07:17:45.102Z,996.32
2018-03-02T07:18:45.067Z,996.32
2018-03-02T07:19:45.032Z,996.31
2018-03-02T07:20:45.003Z,996.36
2018-03-02T07:21:44.978Z,996.35
2018-03-02T07:22:44.942Z,996.34
2018-03-02T07:23:44.903Z,996.33
2018-03-02T07:24:44.864Z,996.27
2018-03-02T07:25:44.833Z,996.26
2018-03-02T07:26:44.802Z,996.31
2018-03-02T07:27:44.764Z,996.26
2018-03-02T07:28:44.734Z,996.28
2018-03-02T07:29:44.701Z,996.26
2018-03-02T07:30:44.675Z,996.23
2018-03-02T07:31:44.636Z,996.31
2018-03-02T07:32:44.599Z,996.24
2018-03-02T07:33:44.570Z,996.21
2018-03-02T07:34:44.533Z,996.23
2018-03-02T07:35:44.499Z,996.24
2018-03-02T07:36:44.477Z,996.25
2018-03-02T07:37:44.435Z,996.24
2018-03-02T07:38:44.401Z,996.22
2018-03-02T07:39:44.382Z,996.23
2018-03-02T07:40:44.338Z,996.24
2018-03-02T07:41:44.308Z,996.22
2018-03-02T07:42:44.296Z,996.18
2018-03-02T07:43:44.239Z,996.09
2018-03-02T07:44:44.205Z,996.18
2018-03-02T07:45:44.261Z,996.18
2018-03-02T07:46:44.148Z,996.19
2018-03-02T07:47:44.108Z,996.25
2018-03-02T07:48:44.115Z,996.27
2018-03-02T07:49:44.040Z,996.20
2018-03-02T07:50:44.006Z,996.26
2018-03-02T07:51:43.977Z,996.18
2018-03-02T07:52:43.942Z,996.22
2018-03-02T07:53:43.922Z,996.22
2018-03-02T07:54:43.878Z,996.16
2018-03-02T07:55:43.843Z,996.26
2018-03-02T07:56:43.817Z,996.25
2018-03-02T07:57:43.778Z,996.23
2018-03-02T07:58:43.746Z,996.20
2018-03-02T07:59:43.715Z,996.29
2018-03-02T08:00:43.679Z,996.14
2018-03-02T08:01:43.656Z,996.22
2018-03-02T08:02:43.646Z,996.15
2018-03-02T08:03:43.586Z,996.14
2018-03-02T08:04:43.546Z,996.12
2018-03-02T08:05:43.518Z,996.06
2018-03-02T08:06:43.490Z,996.06
2018-03-02T08:07:43.452Z,996.09
2018-03-02T08:08:43.433Z,996.02
2018-03-02T08:09:43.437Z,996.11
2018-03-02T08:10:43.359Z,996.12
2018-03-02T08:11:43.318Z,996.07
2018-03-02T08:12:43.286Z,996.05
2018-03-02T08:13:43.262Z,996.03
2018-03-02T08:14:43.224Z,996.10
2018-03-02T08:15:43.190Z,996.09
2018-03-02T08:16:43.160Z,995.98
2018-03-02T08:17:43.126Z,996.02
2018-03-02T08:18:43.101Z,995.98
2018-03-02T08:19:43.066Z,996.02
2018-03-02T08:20:43.028Z,995.94
2018-03-02T08:21:42.997Z,995.99
2018-03-02T08:22:42.965Z,995.94
2018-03-02T08:23:42.932Z,995.96
2018-03-02T08:24:42.904Z,995.97
2018-03-02T08:25:42.869Z,995.99
2018-03-02T08:26:42.839Z,995.97
2018-03-02T08:27:42.815Z,995.98
2018-03-02T08:28:42.774Z,996.01
2018-03-02T08:29:42.749Z,995.94
2018-03-02T08:30:42.848Z,995.99
2018-03-02T08:31:42.675Z,995.96
2018-03-02T08:32:42.642Z,995.99
2018-03-02T08:33:42.613Z,996.03
2018-03-02T08:34:42.581Z,995.90
2018-03-02T08:35:42.553Z,995.97
2018-03-02T08:36:42.520Z,995.93
2018-03-02T08:37:42.490Z,995.91
2018-03-02T08:38:42.451Z,995.96
2018-03-02T08:39:42.422Z,995.98
2018-03-02T08:40:42.386Z,995.97
2018-03-02T08:41:42.353Z,995.92
2018-03-02T08:42:42.325Z,995.98
2018-03-02T08:43:42.291Z,995.94
2018-03-02T08:44:42.270Z,996.02
2018-03-02T08:45:42.230Z,995.98
2018-03-02T08:46:42.196Z,995.93
2018-03-02T08:47:42.169Z,995.94
2018-03-02T08:48:42.129Z,995.95
2018-03-02T08:49:42.099Z,995.95
2018-03-02T08:50:42.070Z,995.88
2018-03-02T08:51:42.032Z,995.94
2018-03-02T08:52:42.096Z,996.17
2018-03-02T08:53:41.977Z,996.02
2018-03-02T08:54:41.949Z,996.10
2018-03-02T08:55:41.912Z,996.09
2018-03-02T08:56:41.878Z,996.13
2018-03-02T08:57:41.842Z,996.19
2018-03-02T08:58:41.894Z,996.15
2018-03-02T08:59:41.783Z,996.09
2018-03-02T09:00:41.752Z,996.12
2018-03-02T09:01:41.719Z,996.25
2018-03-02T09:02:41.698Z,996.09
2018-03-02T09:03:41.660Z,996.08
2018-03-02T09:04:41.623Z,996.11
2018-03-02T09:05:41.599Z,996.15
2018-03-02T09:06:41.568Z,996.19
2018-03-02T09:07:41.539Z,996.11
2018-03-02T09:08:41.515Z,996.18
2018-03-02T09:09:41.480Z,996.15
2018-03-02T09:10:41.455Z,996.10
2018-03-02T09:11:41.424Z,996.09
2018-03-02T09:12:41.397Z,996.14
2018-03-02T09:13:41.374Z,996.05
2018-03-02T09:14:41.475Z,996.19
2018-03-02T09:15:41.310Z,996.13
2018-03-02T09:16:41.290Z,996.14
2018-03-02T09:17:41.258Z,996.27
2018-03-02T09:18:41.238Z,996.23
2018-03-02T09:19:41.203Z,996.17
2018-03-02T09:20:41.176Z,996.17
2018-03-02T09:21:41.148Z,996.26
2018-03-02T09:22:41.125Z,996.15
2018-03-02T09:23:41.102Z,996.09
2018-03-02T09:24:41.070Z,996.06
2018-03-02T09:25:41.093Z,996.02
2018-03-02T09:26:41.017Z,996.14
2018-03-02T09:27:41.004Z,996.02
2018-03-02T09:28:41.104Z,996.20
2018-03-02T09:29:40.948Z,995.96
2018-03-02T09:30:40.914Z,995.95
2018-03-02T09:31:40.887Z,995.95
2018-03-02T09:32:40.872Z,995.89
2018-03-02T09:33:40.836Z,995.89
2018-03-02T09:34:40.822Z,995.98
2018-03-02T09:35:40.804Z,995.89
2018-03-02T09:36:40.763Z,995.85
2018-03-02T09:37:40.737Z,995.79
2018-03-02T09:38:40.719Z,995.89
2018-03-02T09:39:40.685Z,995.92
2018-03-02T09:40:40.665Z,995.79
2018-03-02T09:41:40.673Z,995.78
2018-03-02T09:42:40.617Z,995.79
2018-03-02T09:43:40.604Z,995.83
2018-03-02T09:44:40.559Z,995.87
2018-03-02T09:45:40.538Z,995.84
2018-03-02T09:46:40.513Z,995.85
2018-03-02T09:47:40.484Z,995.80
2018-03-02T09:48:40.454Z,995.83
2018-03-02T09:49:40.434Z,995.77
2018-03-02T09:50:40.403Z,995.92
2018-03-02T09:51:40.373Z,995.90
2018-03-02T09:52:40.361Z,996.04
2018-03-02T09:53:40.329Z,995.76
2018-03-02T09:54:40.324Z,995.86
2018-03-02T09:55:40.276Z,995.85
2018-03-02T09:56:40.255Z,995.84
2018-03-02T09:57:40.225Z,995.69
2018-03-02T09:58:40.215Z,995.59
2018-03-02T09:59:40.189Z,995.70
2018-03-02T10:00:40.156Z,995.67
2018-03-02T10:01:40.126Z,995.66
2018-03-02T10:02:40.103Z,995.77
2018-03-02T10:03:40.175Z,995.68
2018-03-02T10:04:40.070Z,995.66
2018-03-02T10:05:40.033Z,995.66
2018-03-02T10:06:40.008Z,995.72
2018-03-02T10:07:39.982Z,995.59
2018-03-02T10:08:39.965Z,995.69
2018-03-02T10:09:39.934Z,995.67
2018-03-02T10:10:39.912Z,995.59
2018-03-02T10:11:39.887Z,995.60
2018-03-02T10:12:39.862Z,995.65
2018-03-02T10:13:39.839Z,995.62
2018-03-02T10:14:39.828Z,995.61
2018-03-02T10:15:39.790Z,995.57
2018-03-02T10:16:39.775Z,995.59
2018-03-02T10:17:39.753Z,995.59
2018-03-02T10:18:39.725Z,995.54
2018-03-02T10:19:39.696Z,995.61
2018-03-02T10:20:39.671Z,995.48
2018-03-02T10:21:39.656Z,995.48
2018-03-02T10:22:39.625Z,995.48
2018-03-02T10:23:39.744Z,995.45
2018-03-02T10:24:39.576Z,995.48
2018-03-02T10:25:39.553Z,995.47
2018-03-02T10:26:39.530Z,995.52
2018-03-02T10:27:39.508Z,995.36
2018-03-02T10:28:39.482Z,995.46
2018-03-02T10:29:39.462Z,995.46
2018-03-02T10:30:39.437Z,995.38
2018-03-02T10:31:39.409Z,995.31
2018-03-02T10:32:39.393Z,995.30
2018-03-02T10:33:39.373Z,995.38
2018-03-02T10:34:39.342Z,995.37
2018-03-02T10:35:39.352Z,995.41
2018-03-02T10:36:39.296Z,995.39
2018-03-02T10:37:39.272Z,995.34
2018-03-02T10:38:39.301Z,995.30
2018-03-02T10:39:39.226Z,995.34
2018-03-02T10:40:39.208Z,995.29
2018-03-02T10:41:39.179Z,995.29
2018-03-02T10:42:39.165Z,995.31
2018-03-02T10:43:39.145Z,995.32
2018-03-02T10:44:39.107Z,995.33
2018-03-02T10:45:39.085Z,995.37
2018-03-02T10:46:39.058Z,995.29
2018-03-02T10:47:39.039Z,995.27
2018-03-02T10:48:39.013Z,995.26
2018-03-02T10:49:38.995Z,995.29
2018-03-02T10:50:39.033Z,995.26
2018-03-02T10:51:38.943Z,995.21
2018-03-02T10:52:38.919Z,995.21
2018-03-02T10:53:38.902Z,995.13
2018-03-02T10:54:38.868Z,995.21
2018-03-02T10:55:38.851Z,995.26
2018-03-02T10:56:38.837Z,995.18
2018-03-02T10:57:38.821Z,995.25
2018-03-02T10:58:38.836Z,995.24
2018-03-02T10:59:38.751Z,995.23
2018-03-02T11:00:38.736Z,995.23
2018-03-02T11:01:38.708Z,995.24
2018-03-02T11:02:38.683Z,995.19
2018-03-02T11:03:38.656Z,995.18
2018-03-02T11:04:38.633Z,995.18
2018-03-02T11:05:38.612Z,995.19
2018-03-02T11:06:38.585Z,995.14
2018-03-02T11:07:38.562Z,995.11
2018-03-02T11:08:38.589Z,995.17
2018-03-02T11:09:38.516Z,995.11
2018-03-02T11:10:38.491Z,995.13
2018-03-02T11:11:38.622Z,995.09
2018-03-02T11:12:38.448Z,995.20
2018-03-02T11:13:38.421Z,995.20
2018-03-02T11:14:38.395Z,995.16
2018-03-02T11:15:38.375Z,995.13
2018-03-02T11:16:38.359Z,995.09
2018-03-02T11:17:38.326Z,995.20
2018-03-02T11:18:38.311Z,995.15
2018-03-02T11:19:38.280Z,995.11
2018-03-02T11:20:38.252Z,995.09
2018-03-02T11:21:38.231Z,995.16
2018-03-02T11:22:38.210Z,995.11
2018-03-02T11:23:38.182Z,995.00
2018-03-02T11:24:38.167Z,994.99
2018-03-02T11:25:38.138Z,994.98
2018-03-02T11:26:38.115Z,994.99
2018-03-02T11:27:38.117Z,994.95
2018-03-02T11:28:38.077Z,994.97
2018-03-02T11:29:38.038Z,994.84
2018-03-02T11:30:38.082Z,994.90
2018-03-02T11:31:38.000Z,994.82
2018-03-02T11:32:37.977Z,994.85
2018-03-02T11:33:37.954Z,994.82
2018-03-02T11:34:37.920Z,994.78
2018-03-02T11:35:37.928Z,994.80
2018-03-02T11:36:37.874Z,994.75
2018-03-02T11:37:37.850Z,994.78
2018-03-02T11:38:37.831Z,994.71
2018-03-02T11:39:37.807Z,994.75
2018-03-02T11:40:37.792Z,994.78
2018-03-02T11:41:37.753Z,994.80
2018-03-02T11:42:37.731Z,994.98
2018-03-02T11:43:37.729Z,995.08
2018-03-02T11:44:37.682Z,995.02
2018-03-02T11:45:37.669Z,994.98
2018-03-02T11:46:37.638Z,994.87
2018-03-02T11:47:37.609Z,994.81
2018-03-02T11:48:37.593Z,994.84
2018-03-02T11:49:37.567Z,994.80
2018-03-02T11:50:37.551Z,994.86
2018-03-02T11:51:37.517Z,994.82
2018-03-02T11:52:37.515Z,994.76
2018-03-02T11:53:37.484Z,994.72
2018-03-02T11:54:37.450Z,994.67
2018-03-02T11:55:37.421Z,994.71
2018-03-02T11:56:37.406Z,994.70
2018-03-02T11:57:37.380Z,994.71
2018-03-02T11:58:37.349Z,994.64
2018-03-02T11:59:37.327Z,994.68
2018-03-02T12:00:37.298Z,994.72
2018-03-02T12:01:37.276Z,994.71
2018-03-02T12:02:37.258Z,994.83
2018-03-02T12:03:37.228Z,995.17
2018-03-02T12:04:37.199Z,995.35
2018-03-02T12:05:37.185Z,995.10
2018-03-02T12:06:37.151Z,994.71
2018-03-02T12:07:37.132Z,994.75
2018-03-02T12:08:37.106Z,994.68
2018-03-02T12:09:37.119Z,994.69
2018-03-02T12:10:37.092Z,994.72
2018-03-02T12:11:37.054Z,994.71
2018-03-02T12:12:37.004Z,994.69
2018-03-02T12:13:36.973Z,994.60
2018-03-02T12:14:36.949Z,994.61
2018-03-02T12:15:36.925Z,994.49
2018-03-02T12:16:36.908Z,994.57
2018-03-02T12:17:36.887Z,994.60
2018-03-02T12:18:36.850Z,994.59
2018-03-02T12:19:36.823Z,994.54
2018-03-02T12:20:36.794Z,994.60
2018-03-02T12:21:36.782Z,994.56
2018-03-02T12:22:36.791Z,994.54
2018-03-02T12:23:36.720Z,994.47
2018-03-02T12:24:36.692Z,994.47
2018-03-02T12:25:36.675Z,994.44
2018-03-02T12:26:36.641Z,994.38
2018-03-02T12:27:36.612Z,994.34
2018-03-02T12:28:36.588Z,994.44